Time;durP1;ratioP1;P1;durP2;ratioP2;P2;SDS_P1;SDS_P2;PMS_P1;PMS_P2;Temp;Humidity;BMP_temperature;BMP_pressure;BME280_temperature;BME280_humidity;BME280_pressure;Samples;Min_cycle;Max_cycle;Signal;HPM_P1;HPM_P2
2023/12/09 00:01:56;;;;;;;20.97;17.70;;;;;;;1.93;70.30;94910.31;5005285;28;20254;-75
2023/12/09 00:04:22;;;;;;;22.43;18.73;;;;;;;1.87;70.13;94908.13;5004992;28;20229;-72
2023/12/09 00:06:48;;;;;;;23.57;18.30;;;;;;;1.88;70.48;94901.19;5003311;28;20223;-73
2023/12/09 00:09:15;;;;;;;21.90;16.40;;;;;;;1.98;70.27;94905.66;5006739;28;20249;-73
2023/12/09 00:11:41;;;;;;;24.37;17.77;;;;;;;2.08;69.64;94903.25;5011275;28;20214;-71
2023/12/09 00:14:06;;;;;;;22.10;18.27;;;;;;;1.82;70.51;94907.63;5007276;28;20311;-72
2023/12/09 00:16:32;;;;;;;23.73;17.43;;;;;;;1.63;71.48;94909.72;5007927;28;20215;-73
2023/12/09 00:18:59;;;;;;;23.23;19.10;;;;;;;1.62;71.77;94908.09;5004204;28;20279;-72
2023/12/09 00:21:24;;;;;;;22.37;18.23;;;;;;;1.61;71.69;94909.03;4999655;28;20220;-73
2023/12/09 00:23:50;;;;;;;23.07;19.27;;;;;;;1.55;71.92;94899.88;4990234;28;20201;-67
2023/12/09 00:26:15;;;;;;;22.77;18.63;;;;;;;1.52;72.17;94903.50;4978664;28;20216;-72
2023/12/09 00:28:40;;;;;;;22.43;19.03;;;;;;;1.47;72.28;94878.81;5002353;28;20219;-68
2023/12/09 00:31:06;;;;;;;22.20;19.03;;;;;;;1.59;71.91;94900.50;5002854;28;20219;-70
2023/12/09 00:33:32;;;;;;;23.27;17.93;;;;;;;1.71;71.50;94899.69;5007381;28;20219;-70
2023/12/09 00:35:57;;;;;;;21.80;18.50;;;;;;;1.78;71.42;94890.59;5004676;28;20207;-71
2023/12/09 00:38:23;;;;;;;25.90;18.80;;;;;;;1.95;70.91;94898.09;5007243;28;20195;-73
2023/12/09 00:40:48;;;;;;;24.03;19.50;;;;;;;1.82;70.84;94892.06;5005701;28;20313;-71
2023/12/09 00:43:13;;;;;;;20.50;18.23;;;;;;;1.84;70.76;94897.13;5000000;28;20227;-70
2023/12/09 00:45:39;;;;;;;23.27;17.13;;;;;;;1.82;70.76;94893.78;5002010;28;20231;-67
2023/12/09 00:48:04;;;;;;;21.43;18.90;;;;;;;1.66;71.64;94904.38;5003919;28;20254;-67
2023/12/09 00:50:30;;;;;;;22.20;19.23;;;;;;;1.67;71.58;94895.66;5003579;28;20188;-73
2023/12/09 00:52:55;;;;;;;23.03;19.43;;;;;;;1.57;71.53;94900.59;5003814;28;20215;-67
2023/12/09 00:55:21;;;;;;;23.60;19.83;;;;;;;1.54;71.99;94893.03;5004838;28;20309;-72
2023/12/09 00:57:46;;;;;;;23.40;19.03;;;;;;;1.69;71.88;94896.41;5005514;28;20293;-72
2023/12/09 01:00:12;;;;;;;21.63;18.50;;;;;;;1.66;71.58;94901.78;5004623;28;20199;-71
2023/12/09 01:02:41;;;;;;;21.53;18.17;;;;;;;1.81;71.38;94902.53;5000578;28;20187;-71
2023/12/09 01:05:06;;;;;;;23.43;18.43;;;;;;;1.72;71.81;94909.97;5004098;28;20218;-72
2023/12/09 01:07:32;;;;;;;22.53;19.50;;;;;;;1.74;71.54;94908.13;4999566;28;20223;-72
2023/12/09 01:09:57;;;;;;;23.10;19.50;;;;;;;1.68;71.63;94900.72;5004379;28;20243;-72
2023/12/09 01:12:23;;;;;;;23.87;19.47;;;;;;;1.90;71.08;94909.69;5004127;28;20222;-73
2023/12/09 01:14:48;;;;;;;21.83;18.40;;;;;;;1.80;71.04;94909.47;5001551;28;20211;-71
2023/12/09 01:17:14;;;;;;;22.83;17.07;;;;;;;1.75;71.31;94906.34;5005685;28;20219;-73
2023/12/09 01:19:39;;;;;;;22.07;18.93;;;;;;;1.65;71.97;94913.88;5003233;28;20223;-73
2023/12/09 01:22:04;;;;;;;22.87;19.47;;;;;;;1.71;71.79;94917.84;5005370;28;20724;-70
2023/12/09 01:24:30;;;;;;;23.73;20.57;;;;;;;1.67;72.06;94916.38;5009273;28;20242;-70
2023/12/09 01:26:55;;;;;;;23.40;20.10;;;;;;;1.66;71.75;94922.53;5010686;28;20202;-69
2023/12/09 01:29:21;;;;;;;21.53;18.20;;;;;;;1.76;71.70;94911.44;5004510;28;20215;-70
2023/12/09 01:31:46;;;;;;;21.67;18.10;;;;;;;1.77;71.45;94920.88;5006064;28;20215;-71
2023/12/09 01:34:11;;;;;;;20.97;18.03;;;;;;;1.73;71.79;94918.56;5007611;28;20286;-71
2023/12/09 01:36:37;;;;;;;21.87;18.87;;;;;;;1.80;71.42;94912.06;4997881;28;20226;-71
2023/12/09 01:39:02;;;;;;;20.63;18.10;;;;;;;1.82;71.25;94909.34;5006757;28;20213;-71
2023/12/09 01:41:28;;;;;;;19.17;17.13;;;;;;;1.81;71.13;94908.53;5007699;28;20186;-71
2023/12/09 01:43:54;;;;;;;20.47;17.40;;;;;;;1.92;70.65;94907.81;5009478;28;20296;-70
2023/12/09 01:46:21;;;;;;;19.10;16.87;;;;;;;1.93;70.28;94902.53;4999589;28;20238;-71
2023/12/09 01:48:47;;;;;;;16.83;13.83;;;;;;;2.12;70.20;94909.91;5009238;28;20222;-72
2023/12/09 01:51:15;;;;;;;18.30;15.17;;;;;;;2.07;69.89;94901.59;5011635;28;20191;-71
2023/12/09 01:53:42;;;;;;;19.83;15.40;;;;;;;1.91;69.79;94903.56;4992300;28;20192;-71
2023/12/09 01:56:09;;;;;;;17.63;14.23;;;;;;;1.84;70.42;94904.91;5003176;28;20227;-71
2023/12/09 01:58:38;;;;;;;17.20;14.47;;;;;;;1.73;70.55;94898.66;5003556;28;20230;-71
2023/12/09 02:01:04;;;;;;;19.03;13.93;;;;;;;1.79;70.65;94896.59;5004190;28;20223;-71
2023/12/09 02:03:33;;;;;;;19.37;14.80;;;;;;;1.67;70.88;94891.28;5006784;28;20214;-71
2023/12/09 02:05:59;;;;;;;18.77;15.13;;;;;;;1.91;70.71;94885.41;5005241;28;20214;-72
2023/12/09 02:08:24;;;;;;;17.53;14.10;;;;;;;2.01;69.71;94883.06;5000277;28;20190;-73
2023/12/09 02:11:41;;;;;;;18.43;14.77;;;;;;;1.82;70.43;94883.44;5010328;28;20238;-72
2023/12/09 02:14:13;;;;;;;19.13;17.13;;;;;;;1.62;70.91;94887.34;4965366;28;20228;-73
2023/12/09 02:16:52;;;;;;;19.10;16.80;;;;;;;1.67;71.15;94887.88;4955947;28;20235;-73
2023/12/09 02:19:18;;;;;;;19.50;17.20;;;;;;;1.77;71.13;94889.75;4948518;28;20220;-73
2023/12/09 02:21:59;;;;;;;21.80;17.57;;;;;;;1.50;72.13;94889.00;4954416;28;20275;-73
2023/12/09 02:24:26;;;;;;;20.13;17.73;;;;;;;1.57;72.03;94902.38;4964433;28;20312;-72
2023/12/09 02:26:53;;;;;;;19.53;17.07;;;;;;;1.65;71.67;94887.16;4965270;28;20195;-73
2023/12/09 02:29:22;;;;;;;21.00;17.97;;;;;;;1.61;71.81;94886.53;4941852;28;20232;-72
2023/12/09 02:31:51;;;;;;;20.77;17.50;;;;;;;1.45;71.95;94880.69;4965622;28;20220;-72
2023/12/09 02:34:19;;;;;;;20.87;17.87;;;;;;;1.53;71.34;94887.03;4947947;28;20220;-73
2023/12/09 02:36:45;;;;;;;20.03;17.27;;;;;;;1.57;71.40;94882.47;4955686;28;20378;-73
2023/12/09 02:39:13;;;;;;;17.10;15.27;;;;;;;1.65;70.76;94882.78;4969698;28;20185;-72
2023/12/09 02:41:41;;;;;;;17.77;13.73;;;;;;;1.73;70.59;94882.28;4954924;28;20215;-70
2023/12/09 02:44:07;;;;;;;19.23;14.83;;;;;;;1.67;70.52;94878.34;4966403;28;20227;-72
2023/12/09 02:46:33;;;;;;;17.53;14.10;;;;;;;1.63;70.38;94876.91;4945273;28;20240;-73
2023/12/09 02:49:01;;;;;;;17.70;15.03;;;;;;;1.54;70.64;94874.88;4968158;28;20240;-73
2023/12/09 02:51:26;;;;;;;17.47;15.37;;;;;;;1.58;70.70;94878.97;5007002;28;20571;-72
2023/12/09 02:53:54;;;;;;;17.97;15.27;;;;;;;1.52;70.48;94880.19;5005724;28;20188;-72
2023/12/09 02:56:19;;;;;;;20.20;16.47;;;;;;;1.50;70.47;94874.28;5009366;28;20227;-72
2023/12/09 02:58:45;;;;;;;17.77;15.87;;;;;;;1.45;70.98;94878.09;5007498;28;20223;-72
2023/12/09 03:01:10;;;;;;;17.10;15.00;;;;;;;1.59;70.27;94882.38;5004448;28;20219;-72
2023/12/09 03:03:36;;;;;;;19.90;16.33;;;;;;;1.70;69.63;94872.94;5002327;28;20219;-72
2023/12/09 03:06:01;;;;;;;17.47;15.30;;;;;;;1.76;69.38;94866.53;5005324;28;20225;-71
2023/12/09 03:08:26;;;;;;;17.83;15.07;;;;;;;1.57;69.24;94859.13;5002227;28;20186;-72
2023/12/09 03:10:52;;;;;;;18.10;15.57;;;;;;;1.64;69.35;94865.59;5014307;28;20311;-71
2023/12/09 03:13:18;;;;;;;18.37;13.97;;;;;;;1.75;69.00;94857.91;5008269;28;20237;-72
2023/12/09 03:15:43;;;;;;;16.40;12.23;;;;;;;1.86;68.84;94867.56;4997592;28;20230;-71
2023/12/09 03:18:09;;;;;;;18.07;14.57;;;;;;;1.70;69.39;94872.94;5005162;28;20187;-71
2023/12/09 03:20:34;;;;;;;18.37;14.43;;;;;;;1.33;70.77;94872.75;5004612;28;20192;-72
2023/12/09 03:22:59;;;;;;;19.47;15.03;;;;;;;1.54;70.72;94880.91;5004488;28;20224;-72
2023/12/09 03:25:25;;;;;;;17.97;15.67;;;;;;;1.59;70.28;94882.38;5004505;28;20230;-72
2023/12/09 03:27:50;;;;;;;20.33;16.77;;;;;;;1.59;69.99;94878.00;5004766;28;20310;-71
2023/12/09 03:30:15;;;;;;;20.33;17.37;;;;;;;1.53;70.47;94881.00;5013367;28;20296;-72
2023/12/09 03:32:41;;;;;;;19.43;16.60;;;;;;;1.64;70.34;94881.13;5009037;28;20190;-72
2023/12/09 03:35:07;;;;;;;19.87;15.13;;;;;;;1.76;69.77;94888.13;5006582;28;20235;-71
2023/12/09 03:37:32;;;;;;;19.50;16.27;;;;;;;1.64;69.48;94880.31;5004617;28;20223;-72
2023/12/09 03:39:58;;;;;;;18.73;16.70;;;;;;;1.58;69.84;94888.47;5007090;28;20215;-72
2023/12/09 03:42:23;;;;;;;20.63;14.77;;;;;;;1.59;69.64;94883.19;5011250;28;20221;-72
2023/12/09 03:44:49;;;;;;;20.47;16.83;;;;;;;1.57;69.61;94879.03;5009399;28;20183;-73
2023/12/09 03:47:14;;;;;;;17.70;14.67;;;;;;;1.68;69.44;94877.38;5012445;28;20243;-72
2023/12/09 03:49:39;;;;;;;17.50;15.53;;;;;;;1.40;69.64;94880.16;5005072;28;20318;-70
2023/12/09 03:52:05;;;;;;;17.77;15.60;;;;;;;1.29;70.58;94886.03;5005038;28;20231;-71
2023/12/09 03:54:30;;;;;;;18.10;15.03;;;;;;;1.46;69.77;94885.75;5008800;28;20219;-71
2023/12/09 03:56:56;;;;;;;17.40;14.33;;;;;;;1.36;70.09;94886.44;5010697;28;20192;-69
2023/12/09 03:59:21;;;;;;;16.53;14.73;;;;;;;1.31;69.84;94884.19;4992501;28;20309;-71
2023/12/09 04:01:48;;;;;;;17.50;15.47;;;;;;;1.20;70.19;94887.44;5005673;28;20222;-70
2023/12/09 04:04:13;;;;;;;18.00;15.07;;;;;;;1.20;70.50;94882.25;4988521;28;20207;-70
2023/12/09 04:06:39;;;;;;;18.43;15.23;;;;;;;1.40;70.12;94893.94;5008239;28;20219;-71
2023/12/09 04:09:04;;;;;;;17.07;15.37;;;;;;;1.30;70.18;94895.44;5005369;28;20295;-71
2023/12/09 04:11:29;;;;;;;17.20;15.30;;;;;;;1.25;69.89;94890.56;5009617;28;20187;-70
2023/12/09 04:13:55;;;;;;;15.67;14.07;;;;;;;1.27;69.87;94900.84;5005090;28;20243;-70
2023/12/09 04:16:20;;;;;;;14.83;13.33;;;;;;;1.40;69.87;94912.06;5004393;28;20301;-71
2023/12/09 04:18:47;;;;;;;15.90;13.97;;;;;;;1.54;69.23;94906.81;5007329;28;20219;-71
2023/12/09 04:21:12;;;;;;;16.87;15.07;;;;;;;1.55;69.47;94902.44;5006486;28;20200;-70
2023/12/09 04:23:37;;;;;;;16.67;13.67;;;;;;;1.56;69.30;94909.31;5009617;28;20180;-71
2023/12/09 04:26:04;;;;;;;15.73;13.97;;;;;;;1.35;69.45;94903.75;5011581;28;20242;-71
2023/12/09 04:28:29;;;;;;;17.27;15.47;;;;;;;1.47;69.33;94909.91;5008123;28;20215;-70
2023/12/09 04:30:54;;;;;;;15.30;13.50;;;;;;;1.40;69.21;94906.06;5009450;28;20285;-71
2023/12/09 04:33:20;;;;;;;15.87;14.13;;;;;;;1.25;69.63;94905.28;5006001;28;20268;-71
2023/12/09 04:35:45;;;;;;;15.37;12.90;;;;;;;1.26;69.93;94906.97;5008359;28;20290;-71
2023/12/09 04:38:11;;;;;;;16.13;14.03;;;;;;;1.19;69.89;94901.31;5008531;28;20215;-71
2023/12/09 04:40:36;;;;;;;15.20;13.63;;;;;;;1.13;70.10;94903.47;5006994;28;20226;-73
2023/12/09 04:43:01;;;;;;;15.43;13.83;;;;;;;1.16;70.34;94906.69;5004664;28;20235;-71
2023/12/09 04:45:27;;;;;;;13.97;12.53;;;;;;;0.94;70.61;94907.22;5010196;28;20218;-70
2023/12/09 04:47:52;;;;;;;15.43;13.43;;;;;;;0.79;71.34;94911.59;5010070;28;20234;-71
2023/12/09 04:50:18;;;;;;;16.40;13.13;;;;;;;0.91;71.35;94907.44;5002391;28;20225;-72
2023/12/09 04:52:43;;;;;;;15.90;14.20;;;;;;;0.82;71.26;94923.50;5005743;28;20310;-71
2023/12/09 04:55:09;;;;;;;16.20;13.40;;;;;;;0.87;71.18;94917.13;5007480;28;20319;-73
2023/12/09 04:57:35;;;;;;;15.90;13.93;;;;;;;1.03;70.93;94921.34;5003405;28;20211;-72
2023/12/09 05:00:03;;;;;;;15.07;13.30;;;;;;;1.27;70.34;94922.38;5009859;28;20207;-71
2023/12/09 05:02:29;;;;;;;13.90;12.43;;;;;;;1.29;69.86;94925.72;5008764;28;20194;-72
2023/12/09 05:04:54;;;;;;;14.63;12.37;;;;;;;1.23;69.54;94920.94;5008915;28;20215;-72
2023/12/09 05:07:20;;;;;;;14.23;12.53;;;;;;;1.05;70.42;94928.09;5002595;28;20218;-72
2023/12/09 05:09:45;;;;;;;15.17;12.80;;;;;;;0.95;70.50;94929.59;5005331;28;20219;-72
2023/12/09 05:12:10;;;;;;;14.30;12.70;;;;;;;1.09;70.46;94926.13;5005557;28;20187;-70
2023/12/09 05:14:36;;;;;;;14.47;12.70;;;;;;;0.94;70.68;94924.53;5010097;28;20235;-70
2023/12/09 05:17:01;;;;;;;14.60;13.10;;;;;;;0.92;70.59;94927.19;5016000;28;20238;-70
2023/12/09 05:19:27;;;;;;;14.90;12.90;;;;;;;1.24;69.93;94940.72;5004892;28;20227;-72
2023/12/09 05:21:52;;;;;;;14.80;13.10;;;;;;;1.36;69.41;94943.44;5005599;28;20215;-73
2023/12/09 05:24:18;;;;;;;14.33;12.07;;;;;;;1.44;68.96;94941.19;5002938;28;20231;-73
2023/12/09 05:26:43;;;;;;;12.97;11.57;;;;;;;1.44;69.08;94948.97;5006530;28;20229;-73
2023/12/09 05:29:09;;;;;;;14.10;11.27;;;;;;;1.53;68.76;94956.16;5003859;28;20227;-73
2023/12/09 05:31:34;;;;;;;14.13;12.60;;;;;;;1.39;69.07;94957.06;5006286;28;20226;-73
2023/12/09 05:34:01;;;;;;;14.50;11.20;;;;;;;1.57;68.79;94967.16;5001232;28;20223;-72
2023/12/09 05:36:26;;;;;;;13.23;11.00;;;;;;;1.54;68.94;94960.41;5005245;28;20221;-71
2023/12/09 05:38:52;;;;;;;11.93;9.60;;;;;;;1.72;68.59;94958.41;5008022;28;20209;-71
2023/12/09 05:41:17;;;;;;;11.80;10.30;;;;;;;1.66;68.09;94962.22;5003699;28;20245;-71
2023/12/09 05:43:45;;;;;;;12.00;10.50;;;;;;;1.58;68.71;94961.88;5000440;28;20216;-74
2023/12/09 05:46:21;;;;;;;13.27;10.50;;;;;;;1.63;68.75;94966.75;5005086;28;20246;-74
2023/12/09 05:48:47;;;;;;;12.90;10.53;;;;;;;1.47;69.41;94959.13;5002262;28;20226;-72
2023/12/09 05:51:13;;;;;;;13.10;10.57;;;;;;;1.61;69.21;94961.69;5008931;28;20183;-72
2023/12/09 05:53:40;;;;;;;12.77;10.30;;;;;;;1.90;68.63;94966.75;5010459;28;20190;-72
2023/12/09 05:56:08;;;;;;;12.83;10.47;;;;;;;2.04;67.85;94973.63;5002911;28;20393;-71
2023/12/09 05:58:34;;;;;;;12.70;10.10;;;;;;;2.02;67.88;94967.69;4999303;28;20230;-71
2023/12/09 06:01:00;;;;;;;13.10;9.87;;;;;;;1.95;67.89;94969.84;5000938;28;20302;-71
2023/12/09 06:03:25;;;;;;;13.13;10.67;;;;;;;1.80;67.66;94963.91;5010210;28;20247;-73
2023/12/09 06:05:51;;;;;;;12.30;9.50;;;;;;;1.67;68.36;94974.25;5002582;28;20180;-70
2023/12/09 06:08:16;;;;;;;14.10;10.53;;;;;;;1.74;68.16;94970.34;5002011;28;20222;-71
2023/12/09 06:10:42;;;;;;;12.83;10.23;;;;;;;1.72;68.67;94976.53;5008352;28;20226;-71
2023/12/09 06:13:07;;;;;;;13.17;10.00;;;;;;;1.51;68.74;94971.81;5001028;28;20246;-70
2023/12/09 06:15:33;;;;;;;11.17;9.57;;;;;;;1.54;69.08;94978.53;5005383;28;20386;-70
2023/12/09 06:17:58;;;;;;;14.30;10.50;;;;;;;1.65;68.57;94970.91;5004439;28;20187;-69
2023/12/09 06:20:23;;;;;;;13.43;10.43;;;;;;;1.74;68.14;94978.09;5005385;28;20175;-75
2023/12/09 06:22:49;;;;;;;11.83;9.63;;;;;;;1.89;67.88;94972.84;5006041;28;20225;-76
2023/12/09 06:25:14;;;;;;;12.53;9.77;;;;;;;1.99;67.25;94976.50;5005844;28;20319;-74
2023/12/09 06:27:40;;;;;;;12.20;9.67;;;;;;;2.07;66.92;94971.63;5001801;28;20303;-77
2023/12/09 06:30:06;;;;;;;13.43;10.63;;;;;;;2.13;67.07;94971.22;5002739;28;20283;-79
2023/12/09 06:32:31;;;;;;;10.77;9.07;;;;;;;2.20;66.59;94974.25;5008669;28;20266;-77
2023/12/09 06:34:56;;;;;;;12.83;10.23;;;;;;;2.12;66.59;94981.72;5003270;28;20219;-77
2023/12/09 06:37:22;;;;;;;13.67;10.20;;;;;;;2.15;66.63;94982.34;5006058;28;20301;-74
2023/12/09 06:39:47;;;;;;;11.33;10.07;;;;;;;2.19;66.50;94983.81;5005839;28;20277;-75
2023/12/09 06:42:15;;;;;;;12.00;9.53;;;;;;;2.20;66.49;94982.88;5002056;28;20222;-77
2023/12/09 06:44:41;;;;;;;11.80;9.47;;;;;;;2.18;66.18;94979.53;5011852;28;20187;-74
2023/12/09 06:47:08;;;;;;;12.50;9.50;;;;;;;2.12;66.68;94990.31;5003310;28;20281;-76
2023/12/09 06:49:33;;;;;;;12.27;9.33;;;;;;;2.28;66.04;94989.31;5012590;28;20269;-75
2023/12/09 06:51:59;;;;;;;11.23;9.07;;;;;;;2.38;65.63;94985.19;5006594;28;20219;-74
2023/12/09 06:54:26;;;;;;;11.37;10.17;;;;;;;2.14;66.19;94990.22;5003413;28;20234;-74
2023/12/09 06:56:51;;;;;;;12.57;10.60;;;;;;;2.10;66.42;94976.63;5004677;28;20218;-74
2023/12/09 06:59:17;;;;;;;12.00;9.93;;;;;;;2.21;66.12;94996.66;5011465;28;20441;-76
2023/12/09 07:01:43;;;;;;;12.10;10.07;;;;;;;2.31;66.00;94994.28;5002551;28;20227;-76
2023/12/09 07:04:09;;;;;;;10.60;8.77;;;;;;;2.37;66.08;94997.31;5012141;28;20231;-75
2023/12/09 07:06:35;;;;;;;11.40;9.87;;;;;;;2.50;65.38;94999.91;5013497;28;20287;-77
2023/12/09 07:09:00;;;;;;;12.53;9.87;;;;;;;2.61;65.04;95002.59;5008857;28;20203;-75
2023/12/09 07:11:26;;;;;;;10.43;9.27;;;;;;;2.55;65.46;95004.78;5011642;28;20199;-75
2023/12/09 07:13:52;;;;;;;11.00;9.33;;;;;;;2.59;65.02;95012.28;5008102;28;20258;-75
2023/12/09 07:16:18;;;;;;;14.33;11.10;;;;;;;2.72;64.92;95011.44;5003972;28;20231;-76
2023/12/09 07:18:47;;;;;;;12.37;9.27;;;;;;;2.65;64.74;95004.06;5007620;28;20230;-75
2023/12/09 07:21:13;;;;;;;11.80;9.17;;;;;;;2.79;64.41;95010.91;5012229;28;20190;-74
2023/12/09 07:23:40;;;;;;;11.10;9.27;;;;;;;2.81;64.24;95005.63;5007292;28;20233;-77
2023/12/09 07:26:06;;;;;;;10.90;9.17;;;;;;;2.78;64.24;95006.66;5013750;28;20250;-74
2023/12/09 07:28:32;;;;;;;13.00;9.30;;;;;;;2.64;64.16;95015.38;5009238;28;20307;-73
2023/12/09 07:30:57;;;;;;;12.67;9.27;;;;;;;2.46;65.08;95018.38;5009717;28;20310;-75
2023/12/09 07:33:23;;;;;;;11.97;8.07;;;;;;;2.55;64.17;95013.41;5010881;28;20230;-74
2023/12/09 07:35:49;;;;;;;9.90;8.20;;;;;;;2.65;63.95;95019.66;5011602;28;20230;-78
2023/12/09 07:38:14;;;;;;;9.73;7.90;;;;;;;2.86;63.21;95024.28;5004539;28;20306;-77
2023/12/09 07:40:40;;;;;;;9.40;7.80;;;;;;;3.00;62.53;95019.00;5007594;28;20225;-76
2023/12/09 07:43:06;;;;;;;9.83;7.83;;;;;;;2.95;62.41;95028.88;5016705;28;20226;-79
2023/12/09 07:45:33;;;;;;;10.90;8.43;;;;;;;3.16;61.84;95017.94;5008552;28;20237;-76
2023/12/09 07:47:58;;;;;;;11.03;8.73;;;;;;;3.12;62.05;95024.28;5008401;28;20243;-77
2023/12/09 07:50:24;;;;;;;9.87;8.87;;;;;;;3.04;62.25;95035.19;5003396;28;20195;-77
2023/12/09 07:52:49;;;;;;;8.93;7.80;;;;;;;2.74;62.89;95022.56;5004143;28;20228;-76
2023/12/09 07:55:16;;;;;;;9.33;7.97;;;;;;;2.76;63.15;95031.91;5011555;28;20305;-76
2023/12/09 07:57:41;;;;;;;9.13;7.70;;;;;;;2.98;62.33;95031.25;5012550;28;20257;-74
2023/12/09 08:00:07;;;;;;;9.07;7.83;;;;;;;3.06;61.27;95023.78;5004178;28;20195;-76
2023/12/09 08:02:34;;;;;;;9.13;7.83;;;;;;;3.27;61.14;95024.06;5011370;28;20195;-77
2023/12/09 08:04:59;;;;;;;9.80;7.90;;;;;;;3.28;61.13;95037.88;5015502;28;20222;-77
2023/12/09 08:07:25;;;;;;;8.83;7.83;;;;;;;3.03;61.17;95047.38;5006619;28;20234;-80
2023/12/09 08:09:50;;;;;;;9.10;8.00;;;;;;;2.97;61.82;95036.59;5004625;28;20330;-78
2023/12/09 08:12:15;;;;;;;9.60;8.47;;;;;;;3.08;61.14;95027.09;5006632;28;20384;-80
2023/12/09 08:14:42;;;;;;;9.87;7.80;;;;;;;3.14;61.08;95031.03;5010370;28;20300;-82
2023/12/09 08:17:07;;;;;;;10.03;8.63;;;;;;;3.27;60.69;95036.22;5012861;28;20220;-80
2023/12/09 08:19:33;;;;;;;10.77;9.37;;;;;;;3.33;60.67;95040.97;5003341;28;20234;-80
2023/12/09 08:21:59;;;;;;;11.37;9.20;;;;;;;3.50;60.11;95038.03;5008956;28;20231;-78
2023/12/09 08:24:25;;;;;;;12.00;9.13;;;;;;;3.37;60.54;95026.00;5015458;28;20219;-80
2023/12/09 08:26:51;;;;;;;13.90;8.73;;;;;;;3.41;60.49;95030.06;5007974;28;20199;-77
2023/12/09 08:29:17;;;;;;;10.87;8.67;;;;;;;3.52;60.41;95030.13;5013188;28;20253;-83
2023/12/09 08:31:46;;;;;;;9.47;8.27;;;;;;;3.16;60.90;95023.16;5013294;28;20226;-78
2023/12/09 08:34:12;;;;;;;9.80;8.30;;;;;;;3.53;60.84;95045.63;5007953;28;20306;-82
2023/12/09 08:36:41;;;;;;;10.23;8.23;;;;;;;3.61;59.53;95031.22;5019552;28;20262;-81
2023/12/09 08:39:25;;;;;;;11.63;8.87;;;;;;;3.58;60.16;95036.66;5020400;28;20187;-82
2023/12/09 08:42:36;;;;;;;11.37;8.03;;;;;;;3.62;59.29;95027.69;5027568;28;20171;-81
2023/12/09 08:48:40;;;;;;;11.67;8.03;;;;;;;3.84;59.55;95046.03;5350960;23;20211;-80
2023/12/09 08:51:08;;;;;;;11.67;8.87;;;;;;;3.73;59.69;95030.38;5054203;28;20217;-79
2023/12/09 08:53:38;;;;;;;9.97;8.87;;;;;;;3.75;59.99;95026.72;5050952;28;20201;-81
2023/12/09 08:56:38;;;;;;;11.40;9.17;;;;;;;3.75;60.35;95031.09;5045423;28;20232;-80
2023/12/09 09:04:18;;;;;;;10.50;8.80;;;;;;;3.70;59.58;95023.59;5892816;23;20262;-81
2023/12/09 09:06:44;;;;;;;11.70;8.57;;;;;;;3.60;59.67;95029.56;5009186;28;20239;-82
2023/12/09 09:09:17;;;;;;;9.90;8.20;;;;;;;3.84;59.05;95020.00;5016505;28;20241;-78
2023/12/09 09:11:46;;;;;;;10.33;8.40;;;;;;;3.65;59.20;95030.09;5001725;28;20201;-81
2023/12/09 09:14:15;;;;;;;10.53;8.20;;;;;;;3.79;59.49;95029.91;5003108;28;20271;-82
2023/12/09 09:16:44;;;;;;;8.47;7.50;;;;;;;3.61;59.29;95021.69;4993743;28;20219;-81
2023/12/09 09:19:09;;;;;;;8.53;7.53;;;;;;;3.69;59.50;95015.94;4997522;28;20312;-82
2023/12/09 09:21:37;;;;;;;9.63;8.40;;;;;;;3.50;60.71;95025.03;5027870;28;20219;-81
2023/12/09 09:24:06;;;;;;;12.83;8.57;;;;;;;3.54;60.74;95008.28;5013677;28;20175;-81
2023/12/09 09:26:33;;;;;;;13.73;8.10;;;;;;;3.62;60.80;95010.31;5009932;28;20186;-82
2023/12/09 09:28:59;;;;;;;11.67;8.40;;;;;;;3.64;60.64;95002.44;4992173;28;20246;-81
2023/12/09 09:31:25;;;;;;;9.07;8.13;;;;;;;3.70;59.79;94996.78;5014913;28;20222;-81
2023/12/09 09:33:51;;;;;;;10.83;8.60;;;;;;;3.52;59.35;94991.94;4996463;28;20236;-82
2023/12/09 09:36:20;;;;;;;11.27;8.27;;;;;;;3.52;60.24;94988.53;4983079;28;20304;-79
2023/12/09 09:38:47;;;;;;;10.03;8.60;;;;;;;3.72;60.67;94989.69;4998261;28;20183;-81
2023/12/09 09:41:21;;;;;;;13.33;9.80;;;;;;;3.97;60.45;95001.75;4998111;28;20215;-81
2023/12/09 09:43:57;;;;;;;11.07;8.87;;;;;;;3.89;58.03;94989.28;4995653;28;20231;-81
2023/12/09 09:46:25;;;;;;;7.83;6.37;;;;;;;3.61;59.25;94985.28;4989743;28;20222;-83
2023/12/09 09:48:52;;;;;;;6.80;5.70;;;;;;;3.66;59.35;95000.53;4984087;28;20231;-82
2023/12/09 09:51:26;;;;;;;6.43;5.13;;;;;;;3.47;59.09;94981.03;4997926;28;20227;-80
2023/12/09 09:54:16;;;;;;;7.90;6.43;;;;;;;3.76;58.81;94997.16;4989622;28;20266;-80
2023/12/09 09:56:42;;;;;;;7.80;7.10;;;;;;;3.78;58.64;94996.22;4997062;28;20217;-82
2023/12/09 09:59:10;;;;;;;13.03;8.93;;;;;;;3.79;58.52;95000.47;4994241;28;20227;-80
2023/12/09 10:01:37;;;;;;;11.27;8.43;;;;;;;3.95;58.25;95003.63;4991353;28;20225;-83
2023/12/09 10:04:03;;;;;;;7.43;6.47;;;;;;;3.76;58.56;94999.75;4988007;28;20227;-83
2023/12/09 10:06:30;;;;;;;5.07;4.57;;;;;;;3.73;58.05;95001.75;4989101;28;20247;-87
2023/12/09 10:08:57;;;;;;;6.07;4.80;;;;;;;3.70;58.99;95001.97;4972478;28;20513;-83
2023/12/09 10:11:22;;;;;;;6.17;5.50;;;;;;;3.82;58.61;95005.47;4985394;28;20254;-83
2023/12/09 10:13:48;;;;;;;6.80;5.90;;;;;;;3.87;59.14;95001.56;4988952;28;20309;-82
2023/12/09 10:16:13;;;;;;;7.10;6.07;;;;;;;3.96;57.62;94993.13;4985610;28;20227;-82
2023/12/09 10:18:46;;;;;;;7.93;6.67;;;;;;;4.03;58.08;95003.88;4985941;28;20238;-82
2023/12/09 10:21:13;;;;;;;8.27;6.40;;;;;;;4.12;58.43;95008.44;4993203;28;20203;-82
2023/12/09 10:23:39;;;;;;;8.00;6.73;;;;;;;4.04;58.53;95004.75;4978387;28;20188;-82
2023/12/09 10:26:05;;;;;;;6.83;5.77;;;;;;;3.89;58.66;94991.91;4981380;28;20220;-83
2023/12/09 10:28:31;;;;;;;6.40;5.10;;;;;;;3.67;57.93;94982.22;4981843;28;20223;-82
2023/12/09 10:30:56;;;;;;;4.20;3.80;;;;;;;3.93;59.14;94998.56;4976216;28;20233;-85
2023/12/09 10:33:22;;;;;;;5.73;3.77;;;;;;;3.95;57.64;94983.63;4987556;28;20223;-83
2023/12/09 10:35:48;;;;;;;6.77;4.70;;;;;;;4.10;57.97;94991.28;4986234;28;20211;-82
2023/12/09 10:38:15;;;;;;;8.97;6.83;;;;;;;4.04;58.04;94994.34;4990079;28;20234;-83
2023/12/09 10:40:41;;;;;;;10.50;6.90;;;;;;;4.17;57.69;94982.06;4993990;28;20241;-83
2023/12/09 10:43:07;;;;;;;10.37;7.73;;;;;;;4.21;58.38;94978.28;4989919;28;20278;-82
2023/12/09 10:45:32;;;;;;;9.37;7.70;;;;;;;4.32;58.36;94988.72;4985765;28;20229;-81
2023/12/09 10:47:57;;;;;;;9.17;7.87;;;;;;;4.24;57.84;94980.66;4996288;28;20194;-82
2023/12/09 10:50:23;;;;;;;8.67;7.07;;;;;;;4.29;58.75;94982.94;4994011;28;20229;-81
2023/12/09 10:52:49;;;;;;;9.00;7.70;;;;;;;4.12;59.07;94979.00;4987504;28;20273;-82
2023/12/09 10:55:15;;;;;;;7.97;7.17;;;;;;;4.01;57.79;94976.31;4986979;28;20306;-81
2023/12/09 10:57:43;;;;;;;8.63;7.30;;;;;;;4.20;58.30;94968.84;4981080;28;20219;-81
2023/12/09 11:00:10;;;;;;;8.53;6.80;;;;;;;4.40;56.91;94975.13;4991157;28;20195;-83
2023/12/09 11:02:40;;;;;;;7.90;5.93;;;;;;;4.47;57.18;94965.09;4972480;28;20283;-81
2023/12/09 11:05:09;;;;;;;8.10;5.93;;;;;;;4.46;56.95;94959.06;4990669;28;20234;-81
2023/12/09 11:07:37;;;;;;;6.53;5.63;;;;;;;4.61;57.35;94962.28;4969749;28;20231;-83
2023/12/09 11:10:06;;;;;;;5.83;4.63;;;;;;;4.64;57.94;94964.66;4985296;28;20239;-83
2023/12/09 11:12:32;;;;;;;5.10;4.23;;;;;;;4.70;58.20;94955.53;4986615;28;20220;-82
2023/12/09 11:15:31;;;;;;;3.90;3.50;;;;;;;4.84;56.30;94957.94;4957830;28;20305;-80
2023/12/09 11:18:08;;;;;;;4.37;3.87;;;;;;;4.71;56.60;94962.41;4914765;29;20197;-78
2023/12/09 11:20:40;;;;;;;5.83;3.83;;;;;;;4.43;56.19;94954.91;4910851;29;20186;-81
2023/12/09 11:23:11;;;;;;;5.70;4.57;;;;;;;4.26;55.88;94957.97;4928575;29;20229;-81
2023/12/09 11:25:42;;;;;;;5.20;4.30;;;;;;;4.16;57.19;94949.19;4931837;29;20262;-79
2023/12/09 11:28:10;;;;;;;6.03;5.43;;;;;;;4.13;56.66;94962.41;4936753;29;20249;-84
2023/12/09 11:30:40;;;;;;;5.83;5.17;;;;;;;3.86;58.16;94950.50;4915965;29;20225;-80
2023/12/09 11:33:06;;;;;;;7.90;6.27;;;;;;;3.78;57.75;94958.03;4935072;29;20258;-81
2023/12/09 11:35:36;;;;;;;8.30;5.77;;;;;;;3.86;58.60;94954.88;4917883;29;20301;-82
2023/12/09 11:38:04;;;;;;;5.80;4.93;;;;;;;4.13;57.84;94958.03;4935515;29;20308;-83
2023/12/09 11:40:31;;;;;;;4.67;4.13;;;;;;;3.98;57.90;94949.63;4932523;29;20700;-81